Time;durP1;ratioP1;P1;durP2;ratioP2;P2;SDS_P1;SDS_P2;PMS_P1;PMS_P2;Temp;Humidity;BMP_temperature;BMP_pressure;BME280_temperature;BME280_humidity;BME280_pressure;Samples;Min_cycle;Max_cycle;Signal;HPM_P1;HPM_P2
2021/11/18 00:00:22;;;;;;;25.55;14.98;;;;;;;-0.98;58.32;101419.09;1816325;77;21106;-63
2021/11/18 00:02:49;;;;;;;31.35;16.00;;;;;;;-1.00;58.35;101424.73;1832082;77;21061;-63
2021/11/18 00:05:16;;;;;;;29.00;16.10;;;;;;;-1.00;58.39;101426.02;1840819;77;20983;-63
2021/11/18 00:07:49;;;;;;;25.17;14.65;;;;;;;-1.02;58.37;101422.61;1811386;77;21057;-64
2021/11/18 00:10:25;;;;;;;27.30;16.07;;;;;;;-1.04;58.46;101421.79;1834836;77;21696;-64
2021/11/18 00:12:52;;;;;;;28.05;14.73;;;;;;;-1.05;58.63;101421.81;1798975;77;21043;-63
2021/11/18 00:15:20;;;;;;;26.77;14.85;;;;;;;-1.07;58.74;101412.79;1825923;77;21028;-63
2021/11/18 00:17:47;;;;;;;25.35;14.45;;;;;;;-1.04;58.52;101410.58;1819128;77;21109;-63
2021/11/18 00:20:15;;;;;;;29.67;15.38;;;;;;;-1.04;58.52;101410.58;1826741;77;21007;-63
2021/11/18 00:22:44;;;;;;;26.20;14.23;;;;;;;-1.04;58.72;101406.29;1754118;79;23294;-63
2021/11/18 00:25:11;;;;;;;25.90;15.05;;;;;;;-1.06;58.74;101404.59;1769815;80;21531;-64
2021/11/18 00:27:38;;;;;;;27.48;16.67;;;;;;;-1.09;58.82;101405.52;1772217;80;21042;-63
2021/11/18 00:30:07;;;;;;;25.52;15.35;;;;;;;-1.09;58.98;101411.09;1784744;78;21054;-63
2021/11/18 00:32:35;;;;;;;25.43;15.13;;;;;;;-1.09;58.98;101411.09;1758034;80;21000;-64
2021/11/18 00:35:05;;;;;;;23.27;15.03;;;;;;;-1.09;58.98;101409.39;1731145;80;21099;-63
2021/11/18 00:37:32;;;;;;;25.43;14.78;;;;;;;-1.10;58.96;101410.25;1755361;80;21094;-65
2021/11/18 00:39:59;;;;;;;28.50;14.85;;;;;;;-1.12;58.98;101412.85;1739795;80;21023;-63
2021/11/18 00:42:25;;;;;;;24.30;13.70;;;;;;;-1.09;59.00;101405.52;1756991;80;21063;-63
2021/11/18 00:44:54;;;;;;;26.05;15.10;;;;;;;-1.07;58.98;101413.23;1743659;80;21067;-62
2021/11/18 00:47:20;;;;;;;26.97;14.70;;;;;;;-1.06;58.94;101413.22;1787421;78;21132;-63
2021/11/18 00:49:49;;;;;;;23.50;13.62;;;;;;;-1.07;58.89;101405.48;1780304;78;21119;-63
2021/11/18 00:52:16;;;;;;;25.02;14.33;;;;;;;-1.07;58.87;101406.33;1758569;80;21067;-63
2021/11/18 00:54:42;;;;;;;23.57;13.48;;;;;;;-1.10;58.98;101406.37;1736026;79;21086;-63
2021/11/18 00:57:09;;;;;;;31.55;15.45;;;;;;;-1.10;58.98;101406.37;1728519;80;21044;-63
2021/11/18 00:59:37;;;;;;;27.07;14.43;;;;;;;-1.08;58.86;101402.48;1769775;79;21174;-64
2021/11/18 01:02:03;;;;;;;25.15;14.28;;;;;;;-1.09;59.03;101398.17;1758533;80;21101;-63
2021/11/18 01:04:30;;;;;;;21.12;14.10;;;;;;;-1.09;59.03;101398.17;1757523;80;21474;-64
2021/11/18 01:06:58;;;;;;;28.00;14.53;;;;;;;-1.09;59.01;101397.76;1756716;80;21111;-64
2021/11/18 01:09:26;;;;;;;25.75;13.90;;;;;;;-1.08;58.99;101398.61;1752534;80;21004;-63
2021/11/18 01:11:53;;;;;;;28.75;14.10;;;;;;;-1.08;58.99;101398.61;1789880;79;21142;-64
2021/11/18 01:14:21;;;;;;;27.45;14.70;;;;;;;-1.10;58.84;101392.17;1753893;80;21071;-65
2021/11/18 01:16:48;;;;;;;26.95;15.95;;;;;;;-1.13;58.75;101389.20;1760145;80;21145;-64
2021/11/18 01:19:16;;;;;;;25.50;13.88;;;;;;;-1.17;58.63;101391.41;1826236;77;21072;-64
2021/11/18 01:21:45;;;;;;;24.40;14.28;;;;;;;-1.17;58.63;101391.41;1827933;77;21030;-64
2021/11/18 01:24:13;;;;;;;27.17;14.85;;;;;;;-1.18;58.84;101387.55;1787350;77;21102;-64
2021/11/18 01:26:42;;;;;;;23.92;13.38;;;;;;;-1.18;58.75;101387.55;1812715;77;20978;-63
2021/11/18 01:29:08;;;;;;;31.35;15.80;;;;;;;-1.18;58.75;101387.55;1821288;77;21540;-64
2021/11/18 01:31:37;;;;;;;22.85;13.00;;;;;;;-1.22;58.89;101376.87;1798962;77;20990;-64
2021/11/18 01:34:04;;;;;;;24.05;14.58;;;;;;;-1.22;59.09;101372.99;1822983;77;21094;-63
2021/11/18 01:36:32;;;;;;;21.85;12.60;;;;;;;-1.22;59.09;101372.99;1825237;77;21100;-63
2021/11/18 01:39:04;;;;;;;26.17;13.38;;;;;;;-1.21;59.15;101374.69;1824738;77;21588;-63
2021/11/18 01:41:32;;;;;;;25.23;14.35;;;;;;;-1.24;59.09;101375.59;1819839;77;21016;-64
2021/11/18 01:44:05;;;;;;;24.57;13.93;;;;;;;-1.21;59.07;101377.27;1819519;77;21055;-63
2021/11/18 01:46:34;;;;;;;24.30;14.35;;;;;;;-1.22;59.00;101371.70;1796413;78;21098;-63
2021/11/18 01:49:06;;;;;;;21.30;13.53;;;;;;;-1.22;59.00;101371.70;1779362;78;21102;-64
2021/11/18 01:51:36;;;;;;;24.30;14.03;;;;;;;-1.22;59.40;101370.41;1789536;79;21738;-63
2021/11/18 01:54:03;;;;;;;24.40;13.15;;;;;;;-1.21;59.75;101368.22;1821100;77;21618;-63
2021/11/18 01:56:32;;;;;;;24.60;12.82;;;;;;;-1.16;59.81;101372.46;1814136;77;21094;-64
2021/11/18 01:59:17;;;;;;;22.98;13.00;;;;;;;-1.15;59.77;101366.84;1795761;77;21541;-63
2021/11/18 02:01:48;;;;;;;25.27;14.20;;;;;;;-1.14;59.72;101364.69;1800415;77;21081;-62
2021/11/18 02:04:19;;;;;;;26.23;14.07;;;;;;;-1.15;59.80;101365.56;1819987;77;21050;-63
2021/11/18 02:06:55;;;;;;;22.58;12.65;;;;;;;-1.12;59.80;101366.80;1809804;77;20996;-64
2021/11/18 02:09:24;;;;;;;29.10;13.48;;;;;;;-1.11;59.75;101364.62;1818368;77;21019;-63
2021/11/18 02:12:09;;;;;;;25.40;13.55;;;;;;;-1.13;59.70;101362.50;1803574;77;21046;-64
2021/11/18 02:14:36;;;;;;;27.20;13.58;;;;;;;-1.11;59.71;101362.03;1819024;77;21031;-64
2021/11/18 02:17:04;;;;;;;24.47;15.13;;;;;;;-1.12;59.73;101356.48;1811523;77;21046;-64
2021/11/18 02:19:41;;;;;;;23.47;12.82;;;;;;;-1.10;59.65;101345.67;1806516;77;21506;-64
2021/11/18 02:22:10;;;;;;;24.45;14.60;;;;;;;-1.07;59.60;101345.63;1773259;79;21016;-63
2021/11/18 02:24:47;;;;;;;28.62;14.58;;;;;;;-1.04;59.46;101344.70;1788529;78;21085;-63
2021/11/18 02:27:19;;;;;;;29.25;14.55;;;;;;;-1.05;59.12;101342.57;1816895;78;21116;-64
2021/11/18 02:29:48;;;;;;;28.70;14.95;;;;;;;-1.09;58.86;101335.77;1791889;79;21039;-64
2021/11/18 02:32:18;;;;;;;24.02;15.03;;;;;;;-1.09;58.61;101340.05;1772190;77;21015;-63
2021/11/18 02:35:03;;;;;;;32.38;14.63;;;;;;;-1.15;58.48;101337.14;1817336;77;21094;-64
2021/11/18 02:37:31;;;;;;;26.17;15.40;;;;;;;-1.21;58.58;101341.98;1775150;77;21056;-63
2021/11/18 02:39:58;;;;;;;27.62;15.25;;;;;;;-1.27;58.70;101343.81;1813513;77;21226;-64
2021/11/18 02:42:25;;;;;;;28.83;16.50;;;;;;;-1.31;58.76;101346.43;1812924;78;21470;-65
2021/11/18 02:44:51;;;;;;;34.92;18.95;;;;;;;-1.35;58.80;101339.59;1814528;78;21165;-64
2021/11/18 02:47:18;;;;;;;38.92;21.02;;;;;;;-1.39;59.04;101343.56;1813690;78;20993;-63
2021/11/18 02:49:50;;;;;;;42.80;24.80;;;;;;;-1.41;59.18;101343.58;1815051;78;21062;-63
2021/11/18 02:52:27;;;;;;;39.25;23.83;;;;;;;-1.29;59.36;101345.53;1813698;78;21280;-63
2021/11/18 02:54:51;;;;;;;35.00;20.25;;;;;;;-1.29;59.36;101345.53;1813333;78;20988;-63
2021/11/18 02:57:17;;;;;;;39.35;18.70;;;;;;;-1.23;59.50;101335.97;1813245;78;21018;-63
2021/11/18 02:59:44;;;;;;;30.95;17.85;;;;;;;-1.21;59.60;101336.82;1812999;78;21206;-63
2021/11/18 03:02:11;;;;;;;30.30;16.20;;;;;;;-1.20;59.73;101337.66;1807910;78;21090;-63
2021/11/18 03:04:38;;;;;;;32.03;18.98;;;;;;;-1.21;59.69;101330.36;1809836;78;22186;-63
2021/11/18 03:07:07;;;;;;;26.05;16.02;;;;;;;-1.21;59.75;101338.52;1809005;78;21050;-63
2021/11/18 03:09:34;;;;;;;32.50;17.05;;;;;;;-1.22;59.73;101327.80;1788801;78;21086;-63
2021/11/18 03:12:01;;;;;;;27.93;15.18;;;;;;;-1.22;59.72;101327.80;1803318;78;21042;-63
2021/11/18 03:14:28;;;;;;;28.38;15.50;;;;;;;-1.21;59.67;101329.48;1817040;78;22492;-65
2021/11/18 03:16:56;;;;;;;27.65;15.70;;;;;;;-1.21;59.63;101329.07;1811986;78;21818;-63
2021/11/18 03:19:25;;;;;;;24.87;15.45;;;;;;;-1.21;59.64;101325.61;1769004;78;21086;-63
2021/11/18 03:21:52;;;;;;;29.12;17.85;;;;;;;-1.26;59.74;101322.25;1786508;79;21067;-63
2021/11/18 03:24:19;;;;;;;26.40;15.85;;;;;;;-1.28;59.86;101321.43;1811264;78;21564;-63
2021/11/18 03:26:46;;;;;;;29.57;16.52;;;;;;;-1.31;59.88;101326.22;1808223;78;21544;-63
2021/11/18 03:29:14;;;;;;;33.85;17.10;;;;;;;-1.32;59.94;101321.92;1810329;78;23159;-63
2021/11/18 03:31:42;;;;;;;35.78;17.07;;;;;;;-1.37;59.97;101323.28;1807888;78;21145;-64
2021/11/18 03:34:14;;;;;;;33.13;15.88;;;;;;;-1.38;60.02;101320.72;1813418;78;21086;-63
2021/11/18 03:36:42;;;;;;;33.63;17.80;;;;;;;-1.38;60.02;101314.27;1815291;78;21084;-63
2021/11/18 03:39:11;;;;;;;25.15;15.00;;;;;;;-1.40;59.83;101311.70;1805613;78;21022;-64
2021/11/18 03:41:41;;;;;;;26.60;16.17;;;;;;;-1.41;59.83;101318.17;1750456;79;21125;-63
2021/11/18 03:44:10;;;;;;;26.02;16.00;;;;;;;-1.45;60.00;101318.66;1744192;80;21055;-63
2021/11/18 03:46:42;;;;;;;28.85;15.20;;;;;;;-1.45;60.10;101307.50;1816502;78;21463;-64
2021/11/18 03:49:10;;;;;;;28.15;15.98;;;;;;;-1.45;60.11;101307.05;1795061;79;21015;-63
2021/11/18 03:51:39;;;;;;;25.50;14.38;;;;;;;-1.44;60.30;101297.59;1806560;78;20988;-64
2021/11/18 03:54:08;;;;;;;26.55;15.38;;;;;;;-1.42;60.18;101301.84;1813437;78;21118;-64
2021/11/18 03:56:40;;;;;;;23.83;14.45;;;;;;;-1.40;60.08;101297.95;1812031;77;22278;-64
2021/11/18 03:59:17;;;;;;;25.40;14.30;;;;;;;-1.40;60.02;101300.53;1746076;80;21521;-64
2021/11/18 04:01:45;;;;;;;28.77;14.58;;;;;;;-1.40;59.88;101295.37;1801955;78;21042;-64
2021/11/18 04:04:14;;;;;;;29.23;15.48;;;;;;;-1.42;59.71;101301.00;1815584;78;21074;-64
2021/11/18 04:06:42;;;;;;;24.70;14.45;;;;;;;-1.43;59.69;101304.45;1792834;78;21747;-64
2021/11/18 04:09:10;;;;;;;28.20;16.20;;;;;;;-1.41;59.56;101310.02;1786312;78;21130;-64
2021/11/18 04:11:38;;;;;;;22.58;14.23;;;;;;;-1.44;59.34;101310.06;1812759;78;21513;-65
2021/11/18 04:14:06;;;;;;;26.55;15.60;;;;;;;-1.47;59.29;101310.09;1815412;77;21039;-71
2021/11/18 04:16:33;;;;;;;27.77;15.35;;;;;;;-1.49;59.16;101315.73;1816518;77;21447;-64
2021/11/18 04:18:59;;;;;;;25.80;14.35;;;;;;;-1.54;59.16;101318.82;1810507;78;21125;-64
2021/11/18 04:21:28;;;;;;;27.82;14.10;;;;;;;-1.59;59.30;101311.14;1821886;77;20993;-63
2021/11/18 04:23:54;;;;;;;24.40;14.07;;;;;;;-1.60;59.14;101311.16;1733883;81;21035;-63
2021/11/18 04:26:21;;;;;;;29.30;15.28;;;;;;;-1.63;59.18;101308.61;1826255;78;21074;-62
2021/11/18 04:28:48;;;;;;;30.20;15.18;;;;;;;-1.68;59.17;101297.09;1811943;78;21019;-62
2021/11/18 04:31:17;;;;;;;27.85;13.15;;;;;;;-1.72;59.16;101300.58;1826506;78;21090;-62
2021/11/18 04:33:44;;;;;;;29.32;15.68;;;;;;;-1.78;58.99;101288.63;1832274;77;21172;-63
2021/11/18 04:36:12;;;;;;;25.75;15.30;;;;;;;-1.88;58.95;101284.47;1794357;77;21490;-63
2021/11/18 04:38:39;;;;;;;23.30;13.78;;;;;;;-1.88;58.95;101284.47;1820874;78;21125;-63
2021/11/18 04:41:06;;;;;;;27.17;15.55;;;;;;;-1.90;59.14;101286.20;1795733;78;21129;-62
2021/11/18 04:43:34;;;;;;;24.35;13.72;;;;;;;-1.91;59.17;101279.36;1791494;78;21223;-61
2021/11/18 04:46:02;;;;;;;27.42;14.58;;;;;;;-1.92;59.26;101277.19;1773741;78;21471;-64
2021/11/18 04:48:29;;;;;;;28.15;15.63;;;;;;;-1.90;59.31;101267.73;1765711;78;21057;-62
2021/11/18 04:50:56;;;;;;;29.20;16.23;;;;;;;-1.88;59.38;101268.55;1785775;78;21141;-72
2021/11/18 04:53:26;;;;;;;28.50;15.63;;;;;;;-1.87;59.41;101274.14;1794158;78;21078;-62
2021/11/18 04:55:53;;;;;;;28.95;15.20;;;;;;;-1.83;59.44;101272.36;1725870;81;21142;-62
2021/11/18 04:58:19;;;;;;;26.15;15.53;;;;;;;-1.77;59.68;101270.12;1794886;77;21500;-61
2021/11/18 05:00:49;;;;;;;25.80;15.72;;;;;;;-1.71;59.54;101264.88;1774805;78;21013;-67
2021/11/18 05:03:16;;;;;;;32.88;16.07;;;;;;;-1.66;59.64;101266.08;1803977;77;21473;-61
2021/11/18 05:05:43;;;;;;;23.83;15.03;;;;;;;-1.65;59.75;101267.34;1811177;77;21065;-62
2021/11/18 05:08:12;;;;;;;27.67;15.85;;;;;;;-1.65;59.84;101269.08;1812301;77;21089;-62
2021/11/18 05:10:40;;;;;;;23.73;15.28;;;;;;;-1.67;59.95;101264.39;1766819;79;21129;-61
2021/11/18 05:13:07;;;;;;;28.27;14.98;;;;;;;-1.65;59.84;101267.80;1780627;78;21557;-63
2021/11/18 05:15:38;;;;;;;26.20;16.25;;;;;;;-1.65;59.84;101267.80;1793589;78;21054;-63
2021/11/18 05:18:05;;;;;;;32.40;16.45;;;;;;;-1.63;59.91;101268.61;1796301;78;21070;-64
2021/11/18 05:20:33;;;;;;;23.67;14.40;;;;;;;-1.65;59.69;101271.22;1784786;78;21125;-64
2021/11/18 05:22:59;;;;;;;29.70;16.27;;;;;;;-1.63;59.82;101268.61;1715602;81;21083;-65
2021/11/18 05:25:28;;;;;;;27.58;15.83;;;;;;;-1.62;59.94;101274.20;1708543;82;21122;-64
2021/11/18 05:27:59;;;;;;;28.02;16.30;;;;;;;-1.60;60.09;101271.16;1793699;78;21051;-63
2021/11/18 05:30:32;;;;;;;29.50;16.25;;;;;;;-1.58;60.13;101275.84;1764313;79;21066;-64
2021/11/18 05:33:01;;;;;;;31.12;16.90;;;;;;;-1.57;60.01;101279.70;1773396;78;21085;-64
2021/11/18 05:35:32;;;;;;;36.53;19.20;;;;;;;-1.56;60.13;101272.83;1779351;78;21109;-64
2021/11/18 05:37:59;;;;;;;30.17;17.32;;;;;;;-1.55;60.02;101268.91;1797501;78;20984;-63
2021/11/18 05:40:28;;;;;;;31.35;16.32;;;;;;;-1.52;59.83;101270.15;1804643;76;22832;-65
2021/11/18 05:43:30;;;;;;;27.52;17.10;;;;;;;-1.51;59.67;101271.02;1821376;78;21090;-72
2021/11/18 05:52:37;;;;;;;28.80;16.52;;;;;;;-1.49;59.51;101266.69;1703250;81;20175;-67
2021/11/18 05:55:06;;;;;;;27.05;16.87;;;;;;;-1.58;59.65;101279.72;1738365;78;21094;-65
2021/11/18 05:57:33;;;;;;;31.80;17.27;;;;;;;-1.58;59.79;101274.55;1811575;78;21039;-63
2021/11/18 05:59:59;;;;;;;31.15;15.53;;;;;;;-1.54;59.63;101277.52;1809637;77;21007;-64
2021/11/18 06:02:26;;;;;;;26.35;16.17;;;;;;;-1.54;59.55;101277.07;1817335;78;21106;-63
2021/11/18 06:04:56;;;;;;;28.77;16.02;;;;;;;-1.56;59.48;101272.38;1825755;77;21019;-64
2021/11/18 06:07:22;;;;;;;30.85;15.75;;;;;;;-1.53;59.56;101275.34;1773762;78;21075;-64
2021/11/18 06:09:48;;;;;;;33.02;17.80;;;;;;;-1.47;59.66;101282.16;1800471;78;21003;-63
2021/11/18 06:12:19;;;;;;;30.80;16.90;;;;;;;-1.46;59.51;101279.96;1822252;77;20992;-63
2021/11/18 06:14:46;;;;;;;29.85;16.45;;;;;;;-1.44;59.49;101279.53;1814818;78;21122;-63
2021/11/18 06:17:13;;;;;;;30.57;16.90;;;;;;;-1.42;59.44;101279.90;1815146;78;21794;-64
2021/11/18 06:19:42;;;;;;;30.15;17.12;;;;;;;-1.39;59.54;101276.43;1814140;78;21646;-63
2021/11/18 06:22:09;;;;;;;36.45;18.42;;;;;;;-1.27;59.53;101286.55;1798920;77;21054;-63
2021/11/18 06:24:40;;;;;;;29.07;17.20;;;;;;;-1.27;59.53;101286.55;1788995;77;21192;-65
2021/11/18 06:27:06;;;;;;;33.45;19.35;;;;;;;-1.22;59.66;101274.86;1812283;77;21032;-64
2021/11/18 06:29:34;;;;;;;28.83;16.90;;;;;;;-1.15;59.73;101271.28;1814366;77;22393;-62
2021/11/18 06:32:04;;;;;;;27.42;18.17;;;;;;;-1.06;59.85;101276.73;1816768;77;21065;-62
2021/11/18 06:34:32;;;;;;;29.07;17.87;;;;;;;-0.99;59.61;101271.89;1785318;79;21101;-63
2021/11/18 06:36:58;;;;;;;32.10;17.02;;;;;;;-0.89;59.71;101268.25;1819034;77;21030;-65
2021/11/18 06:39:27;;;;;;;30.05;16.85;;;;;;;-0.83;59.71;101264.69;1816419;77;21042;-64
2021/11/18 06:41:53;;;;;;;36.50;18.73;;;;;;;-0.80;59.65;101267.22;1827485;78;21109;-64
2021/11/18 06:44:20;;;;;;;33.78;17.90;;;;;;;-0.81;59.82;101259.05;1805441;77;21062;-65
2021/11/18 06:46:47;;;;;;;29.00;16.25;;;;;;;-0.71;60.07;101259.73;1819018;77;22143;-66
2021/11/18 06:49:14;;;;;;;24.05;14.53;;;;;;;-0.71;60.07;101259.73;1814555;78;21122;-65
2021/11/18 06:51:42;;;;;;;33.65;13.50;;;;;;;-0.69;59.93;101252.38;1828925;77;21060;-68
2021/11/18 06:54:10;;;;;;;28.95;15.75;;;;;;;-0.70;59.90;101262.29;1818055;77;21042;-68
2021/11/18 06:56:37;;;;;;;26.95;14.85;;;;;;;-0.71;60.00;101254.11;1788453;78;21038;-67
2021/11/18 06:59:04;;;;;;;31.30;14.50;;;;;;;-0.68;60.05;101255.80;1804261;78;21043;-62
2021/11/18 07:01:33;;;;;;;26.33;15.25;;;;;;;-0.69;60.03;101253.67;1813668;78;21307;-67
2021/11/18 07:04:00;;;;;;;24.00;13.48;;;;;;;-0.66;60.33;101254.03;1809040;78;21564;-67
2021/11/18 07:06:26;;;;;;;26.97;14.50;;;;;;;-0.64;60.25;101253.14;1817407;77;21577;-63
2021/11/18 07:08:54;;;;;;;27.48;15.20;;;;;;;-0.63;60.29;101251.39;1768318;77;21152;-62
2021/11/18 07:11:22;;;;;;;24.87;14.05;;;;;;;-0.61;60.59;101249.17;1825902;78;20995;-64
2021/11/18 07:13:49;;;;;;;29.65;15.20;;;;;;;-0.56;60.44;101246.50;1818143;77;21066;-65
2021/11/18 07:16:18;;;;;;;23.83;14.28;;;;;;;-0.48;60.06;101246.36;1816994;78;21493;-66
2021/11/18 07:21:33;;;;;;;21.25;14.68;;;;;;;-0.44;60.33;101246.70;1775277;78;21066;-67
2021/11/18 07:24:02;;;;;;;23.35;14.05;;;;;;;-0.37;60.41;101259.90;1818592;76;21097;-67
2021/11/18 07:26:32;;;;;;;22.42;13.70;;;;;;;-0.32;60.54;101256.80;1817130;77;20963;-67
2021/11/18 07:28:59;;;;;;;24.65;14.30;;;;;;;-0.23;60.33;101254.47;1823903;77;21027;-63
2021/11/18 07:31:27;;;;;;;27.50;14.25;;;;;;;-0.14;60.20;101258.58;1823802;77;21000;-65
2021/11/18 07:33:53;;;;;;;26.90;13.50;;;;;;;-0.06;60.25;101254.09;1801104;77;20991;-65
2021/11/18 07:36:20;;;;;;;29.23;14.70;;;;;;;0.07;59.99;101253.36;1813491;77;21089;-64
2021/11/18 07:38:47;;;;;;;25.30;14.68;;;;;;;0.12;59.68;101257.56;1813613;78;21530;-65
2021/11/18 07:41:16;;;;;;;23.02;13.43;;;;;;;0.17;59.75;101254.43;1790874;77;21156;-63
2021/11/18 07:43:50;;;;;;;23.12;13.90;;;;;;;0.22;59.52;101249.16;1810593;77;21118;-69
2021/11/18 07:46:22;;;;;;;23.52;13.18;;;;;;;0.25;59.59;101249.06;1759069;78;21101;-67
2021/11/18 07:48:53;;;;;;;22.85;13.62;;;;;;;0.34;59.60;101244.13;1803034;78;21237;-72
2021/11/18 07:51:22;;;;;;;23.30;13.68;;;;;;;0.41;59.41;101236.62;1803016;78;22131;-69
2021/11/18 07:53:49;;;;;;;21.50;14.33;;;;;;;0.50;59.30;101241.56;1780473;78;21047;-65
2021/11/18 07:56:18;;;;;;;24.43;14.47;;;;;;;0.53;59.37;101237.60;1807325;78;21675;-71
2021/11/18 07:58:45;;;;;;;22.20;12.68;;;;;;;0.65;59.02;101247.27;1776934;78;21662;-67
2021/11/18 08:01:13;;;;;;;25.15;14.38;;;;;;;0.69;58.82;101243.69;1783293;77;21072;-68
2021/11/18 08:03:40;;;;;;;25.62;13.62;;;;;;;0.75;58.83;101240.95;1785185;78;21252;-69
2021/11/18 08:06:22;;;;;;;28.87;14.43;;;;;;;0.82;58.62;101241.20;1807126;78;20987;-66
2021/11/18 08:08:51;;;;;;;21.68;12.45;;;;;;;0.87;58.53;101243.22;1807688;78;21042;-67
2021/11/18 08:11:27;;;;;;;23.95;13.95;;;;;;;0.92;58.34;101237.50;1812485;78;21086;-64
2021/11/18 08:13:57;;;;;;;26.48;14.58;;;;;;;0.99;58.54;101248.98;1769245;77;21001;-65
2021/11/18 08:16:23;;;;;;;24.45;14.65;;;;;;;1.04;58.39;101242.81;1803221;77;21905;-69
2021/11/18 08:18:52;;;;;;;22.22;13.28;;;;;;;1.06;58.38;101239.72;1782726;78;21059;-67
2021/11/18 08:21:20;;;;;;;21.82;13.40;;;;;;;1.11;57.98;101237.85;1764718;78;21043;-66
2021/11/18 08:23:47;;;;;;;24.07;13.70;;;;;;;1.19;58.15;101243.27;1807938;77;21313;-70
2021/11/18 08:26:15;;;;;;;24.60;13.80;;;;;;;1.22;58.32;101235.41;1805938;78;21006;-67
2021/11/18 08:28:42;;;;;;;27.50;13.90;;;;;;;1.29;58.23;101230.45;1806506;78;21072;-69
2021/11/18 08:31:11;;;;;;;24.05;13.25;;;;;;;1.39;58.27;101233.19;1756370;78;21098;-68
2021/11/18 08:33:41;;;;;;;25.60;14.50;;;;;;;1.46;58.05;101236.03;1800853;78;21572;-69
2021/11/18 08:36:07;;;;;;;24.77;13.78;;;;;;;1.54;57.94;101232.36;1808793;77;21039;-68
2021/11/18 08:38:35;;;;;;;28.25;13.68;;;;;;;1.60;57.80;101236.92;1780066;78;21043;-67
2021/11/18 08:41:06;;;;;;;18.55;12.85;;;;;;;1.70;58.00;101239.23;1812824;77;21506;-66
2021/11/18 08:43:35;;;;;;;24.72;13.72;;;;;;;1.76;57.90;101233.87;1814946;77;21058;-66
2021/11/18 08:46:04;;;;;;;24.82;13.45;;;;;;;1.85;57.97;101233.16;1796139;77;21045;-67
2021/11/18 08:48:32;;;;;;;32.70;13.43;;;;;;;1.92;57.79;101233.83;1817549;77;21106;-66
2021/11/18 08:50:59;;;;;;;22.87;13.25;;;;;;;1.97;57.64;101229.34;1813814;77;21064;-66
2021/11/18 08:53:29;;;;;;;24.05;13.08;;;;;;;2.00;57.62;101238.77;1811578;78;21840;-65
2021/11/18 08:55:57;;;;;;;25.32;13.65;;;;;;;2.06;57.61;101231.26;1807950;77;21160;-67
2021/11/18 08:58:29;;;;;;;26.82;13.55;;;;;;;2.10;57.86;101219.44;1818020;77;21066;-68
2021/11/18 09:01:08;;;;;;;29.52;13.98;;;;;;;2.20;57.53;101226.03;1814545;77;21688;-61
2021/11/18 09:03:37;;;;;;;19.87;13.72;;;;;;;2.23;57.79;101221.18;1816495;77;21043;-60
2021/11/18 09:06:07;;;;;;;22.22;13.80;;;;;;;2.32;57.99;101214.83;1797608;78;21066;-67
2021/11/18 09:08:35;;;;;;;25.75;12.58;;;;;;;2.43;57.86;101205.41;1789777;78;22289;-66
2021/11/18 09:11:06;;;;;;;20.08;12.90;;;;;;;2.52;57.74;101196.00;1816613;77;21041;-65
2021/11/18 09:13:32;;;;;;;19.80;11.88;;;;;;;2.57;57.52;101189.77;1822016;77;21074;-70
2021/11/18 09:15:59;;;;;;;20.48;12.20;;;;;;;2.63;57.81;101186.10;1819647;77;21622;-72
2021/11/18 09:18:27;;;;;;;19.45;12.00;;;;;;;2.70;57.83;101177.19;1817165;77;21803;-70
2021/11/18 09:20:55;;;;;;;26.15;11.20;;;;;;;2.79;57.70;101182.51;1810542;77;21585;-67
2021/11/18 09:23:25;;;;;;;18.75;11.95;;;;;;;2.86;57.83;101184.45;1818937;77;21050;-67
2021/11/18 09:25:51;;;;;;;19.60;11.10;;;;;;;2.92;57.83;101173.84;1812163;77;21535;-69
2021/11/18 09:28:22;;;;;;;20.37;11.70;;;;;;;2.98;57.65;101181.44;1819266;77;21055;-67
2021/11/18 09:31:03;;;;;;;22.67;13.88;;;;;;;3.05;57.65;101180.30;1782451;79;21099;-61
2021/11/18 09:33:31;;;;;;;18.40;11.73;;;;;;;3.11;57.53;101186.59;1730630;81;21137;-71
2021/11/18 09:36:01;;;;;;;23.02;11.08;;;;;;;3.19;57.52;101185.45;1749336;80;21114;-72
2021/11/18 09:38:31;;;;;;;22.05;12.80;;;;;;;3.26;57.15;101174.78;1798403;77;21011;-63
2021/11/18 09:41:25;;;;;;;22.45;13.60;;;;;;;3.33;57.22;101176.70;1817916;77;21074;-62
2021/11/18 09:43:58;;;;;;;20.70;11.43;;;;;;;3.43;57.28;101167.65;1822551;77;21137;-64
2021/11/18 09:47:05;;;;;;;20.23;12.40;;;;;;;3.51;57.13;101147.83;1815010;77;21054;-66
2021/11/18 09:50:15;;;;;;;22.13;12.53;;;;;;;3.60;57.06;101148.79;1815521;77;21043;-64
2021/11/18 09:53:16;;;;;;;22.10;13.10;;;;;;;3.71;56.89;101149.66;1814690;77;20998;-67
2021/11/18 09:56:03;;;;;;;22.60;12.60;;;;;;;3.80;56.86;101144.11;1797106;77;21082;-69
2021/11/18 09:59:04;;;;;;;19.77;12.10;;;;;;;3.88;56.66;101145.95;1818557;78;21090;-72
2021/11/18 10:02:17;;;;;;;21.50;13.22;;;;;;;3.97;56.62;101145.16;1819905;77;21109;-70
2021/11/18 10:04:58;;;;;;;22.73;11.97;;;;;;;4.05;56.58;101132.69;1795837;78;21370;-68
2021/11/18 10:07:33;;;;;;;26.20;13.48;;;;;;;4.09;56.56;101124.69;1815419;77;21039;-71
2021/11/18 10:10:20;;;;;;;19.07;11.33;;;;;;;4.12;56.72;101126.34;1796083;77;21518;-70
2021/11/18 10:13:17;;;;;;;24.30;12.60;;;;;;;4.21;56.69;101119.42;1819885;77;21722;-66
2021/11/18 10:15:50;;;;;;;21.17;12.33;;;;;;;4.31;56.68;101115.15;1796539;77;21058;-72
2021/11/18 10:18:34;;;;;;;19.98;11.60;;;;;;;4.42;56.64;101109.01;1793832;77;21035;-66
2021/11/18 10:21:23;;;;;;;18.23;10.98;;;;;;;4.54;56.35;101099.38;1812757;77;21412;-64
2021/11/18 10:23:55;;;;;;;21.05;11.43;;;;;;;4.63;56.11;101105.48;1819047;77;21058;-63
2021/11/18 10:26:27;;;;;;;17.85;10.63;;;;;;;4.68;55.94;101094.02;1816547;77;21085;-65
2021/11/18 10:29:23;;;;;;;22.58;11.28;;;;;;;4.75;55.68;101098.04;1817884;77;21082;-72
2021/11/18 10:31:58;;;;;;;17.87;10.70;;;;;;;4.83;55.64;101079.83;1818549;77;21101;-67
2021/11/18 10:34:32;;;;;;;18.40;10.82;;;;;;;4.98;55.41;101080.91;1803123;77;21083;-68
2021/11/18 10:37:32;;;;;;;19.92;10.35;;;;;;;5.13;55.41;101072.00;1816114;77;21077;-64
2021/11/18 10:40:19;;;;;;;19.67;10.50;;;;;;;5.23;54.38;101080.22;1815372;77;21070;-67
2021/11/18 10:42:50;;;;;;;18.45;10.30;;;;;;;5.18;54.34;101073.47;1814767;77;21115;-65
2021/11/18 10:45:41;;;;;;;18.92;10.13;;;;;;;5.19;54.64;101071.70;1817344;77;21061;-67
2021/11/18 10:48:33;;;;;;;17.15;10.68;;;;;;;5.25;54.29;101080.55;1818653;77;21069;-65
2021/11/18 10:51:11;;;;;;;22.50;11.22;;;;;;;5.25;54.03;101071.42;1814796;77;21066;-67
2021/11/18 10:53:57;;;;;;;16.70;9.90;;;;;;;5.25;54.12;101071.89;1818540;77;22613;-64
2021/11/18 10:56:50;;;;;;;22.77;10.82;;;;;;;5.28;54.10;101066.06;1813481;77;21058;-69
2021/11/18 10:59:21;;;;;;;19.27;10.70;;;;;;;5.31;54.02;101069.84;1768245;79;21075;-68
2021/11/18 11:01:52;;;;;;;18.05;10.55;;;;;;;5.34;54.15;101063.61;1760868;79;21603;-71
2021/11/18 11:04:41;;;;;;;16.32;9.65;;;;;;;5.40;53.87;101062.86;1791772;76;21055;-65
2021/11/18 11:07:09;;;;;;;22.42;10.90;;;;;;;5.45;53.67;101069.64;1817328;77;21054;-69
2021/11/18 11:09:39;;;;;;;14.68;9.20;;;;;;;5.43;53.68;101059.71;1812372;78;20996;-67
2021/11/18 11:12:26;;;;;;;19.27;9.73;;;;;;;5.44;53.59;101051.81;1812483;77;21568;-67
2021/11/18 11:15:51;;;;;;;15.05;9.93;;;;;;;5.47;53.49;101050.84;1815994;78;21074;-70
2021/11/18 11:19:03;;;;;;;17.70;9.68;;;;;;;5.46;53.31;101039.53;1819631;77;21114;-68
2021/11/18 11:21:48;;;;;;;14.05;9.15;;;;;;;5.42;53.62;101024.11;1804900;77;21021;-62
2021/11/18 11:24:36;;;;;;;14.87;10.00;;;;;;;5.48;53.82;101034.23;1820366;77;21078;-64
2021/11/18 11:27:34;;;;;;;15.65;9.43;;;;;;;5.56;53.71;101036.88;1815574;77;21687;-70
2021/11/18 11:30:43;;;;;;;17.60;9.90;;;;;;;5.64;53.21;101053.47;1806737;77;21066;-66
2021/11/18 11:33:42;;;;;;;20.05;10.65;;;;;;;5.61;52.98;101037.94;1817726;78;21023;-67
2021/11/18 11:36:22;;;;;;;16.77;9.30;;;;;;;5.50;53.23;101033.25;1808705;77;21125;-70
2021/11/18 11:39:00;;;;;;;17.30;11.18;;;;;;;5.44;53.53;101043.15;1833820;77;21051;-71
2021/11/18 11:41:51;;;;;;;19.20;9.98;;;;;;;5.41;53.57;101034.98;1815850;77;21524;-72